sensor_id;sensor_type;location;lat;lon;timestamp;pressure;altitude;pressure_sealevel;temperature;humidity
70127;BME280;57491;42.694;23.314;2023-05-22T00:01:24;94896.84;;;16.20;63.67
70127;BME280;57491;42.694;23.314;2023-05-22T00:03:52;94894.66;;;16.17;63.84
70127;BME280;57491;42.694;23.314;2023-05-22T00:06:20;94890.81;;;16.20;63.70
70127;BME280;57491;42.694;23.314;2023-05-22T00:08:48;94893.59;;;16.25;63.60
70127;BME280;57491;42.694;23.314;2023-05-22T00:11:18;94894.38;;;16.25;63.38
70127;BME280;57491;42.694;23.314;2023-05-22T00:13:45;94890.72;;;16.26;63.42
70127;BME280;57491;42.694;23.314;2023-05-22T00:16:12;94893.34;;;16.26;63.10
70127;BME280;57491;42.694;23.314;2023-05-22T00:18:39;94889.88;;;16.32;63.09
70127;BME280;57491;42.694;23.314;2023-05-22T00:21:07;94900.50;;;16.37;62.89
70127;BME280;57491;42.694;23.314;2023-05-22T00:23:34;94892.03;;;16.35;63.33
70127;BME280;57491;42.694;23.314;2023-05-22T00:26:01;94888.75;;;16.40;62.95
70127;BME280;57491;42.694;23.314;2023-05-22T00:28:30;94892.34;;;16.45;62.79
70127;BME280;57491;42.694;23.314;2023-05-22T00:30:57;94888.09;;;16.44;62.82
70127;BME280;57491;42.694;23.314;2023-05-22T00:33:24;94902.19;;;16.50;62.31
70127;BME280;57491;42.694;23.314;2023-05-22T00:35:51;94896.13;;;16.49;62.36
70127;BME280;57491;42.694;23.314;2023-05-22T00:38:27;94896.28;;;16.55;62.00
70127;BME280;57491;42.694;23.314;2023-05-22T00:40:55;94902.88;;;16.57;62.35
70127;BME280;57491;42.694;23.314;2023-05-22T00:43:22;94906.56;;;16.56;62.33
70127;BME280;57491;42.694;23.314;2023-05-22T00:45:51;94904.34;;;16.53;62.22
70127;BME280;57491;42.694;23.314;2023-05-22T00:48:18;94894.41;;;16.43;62.70
70127;BME280;57491;42.694;23.314;2023-05-22T00:50:46;94899.19;;;16.46;62.38
70127;BME280;57491;42.694;23.314;2023-05-22T00:53:14;94896.78;;;16.45;62.63
70127;BME280;57491;42.694;23.314;2023-05-22T00:55:42;94899.75;;;16.48;62.66
70127;BME280;57491;42.694;23.314;2023-05-22T00:58:10;94897.94;;;16.49;62.62
70127;BME280;57491;42.694;23.314;2023-05-22T01:00:40;94887.09;;;16.45;62.60
70127;BME280;57491;42.694;23.314;2023-05-22T01:03:10;94894.97;;;16.45;62.54
70127;BME280;57491;42.694;23.314;2023-05-22T01:05:38;94891.03;;;16.36;62.84
70127;BME280;57491;42.694;23.314;2023-05-22T01:08:06;94889.41;;;16.35;63.50
70127;BME280;57491;42.694;23.314;2023-05-22T01:10:36;94888.59;;;16.35;62.98
70127;BME280;57491;42.694;23.314;2023-05-22T01:13:08;94889.22;;;16.37;63.25
70127;BME280;57491;42.694;23.314;2023-05-22T01:15:43;94889.06;;;16.32;62.96
70127;BME280;57491;42.694;23.314;2023-05-22T01:18:22;94898.75;;;16.31;63.41
70127;BME280;57491;42.694;23.314;2023-05-22T01:20:53;94899.19;;;16.28;63.46
70127;BME280;57491;42.694;23.314;2023-05-22T01:23:40;94893.50;;;16.31;63.82
70127;BME280;57491;42.694;23.314;2023-05-22T01:26:23;94893.50;;;16.31;63.47
70127;BME280;57491;42.694;23.314;2023-05-22T01:29:22;94883.50;;;16.22;63.57
70127;BME280;57491;42.694;23.314;2023-05-22T01:31:56;94885.97;;;16.17;63.84
70127;BME280;57491;42.694;23.314;2023-05-22T01:34:25;94889.03;;;16.14;63.90
70127;BME280;57491;42.694;23.314;2023-05-22T01:36:54;94877.59;;;16.08;63.73
70127;BME280;57491;42.694;23.314;2023-05-22T01:39:23;94886.19;;;15.97;64.48
70127;BME280;57491;42.694;23.314;2023-05-22T01:41:51;94881.38;;;15.94;64.63
70127;BME280;57491;42.694;23.314;2023-05-22T01:44:18;94877.00;;;15.88;64.85
70127;BME280;57491;42.694;23.314;2023-05-22T01:46:45;94874.00;;;15.84;64.87
70127;BME280;57491;42.694;23.314;2023-05-22T01:49:14;94877.00;;;15.88;65.53
70127;BME280;57491;42.694;23.314;2023-05-22T01:51:49;94880.78;;;15.92;65.15
70127;BME280;57491;42.694;23.314;2023-05-22T01:54:22;94879.97;;;15.91;65.36
70127;BME280;57491;42.694;23.314;2023-05-22T01:56:54;94878.22;;;15.85;65.30
70127;BME280;57491;42.694;23.314;2023-05-22T01:59:26;94876.84;;;15.83;65.37
70127;BME280;57491;42.694;23.314;2023-05-22T02:01:58;94877.66;;;15.83;65.86
70127;BME280;57491;42.694;23.314;2023-05-22T02:04:29;94872.25;;;15.78;65.56
70127;BME280;57491;42.694;23.314;2023-05-22T02:06:58;94877.03;;;15.81;65.61
70127;BME280;57491;42.694;23.314;2023-05-22T02:09:27;94871.22;;;15.79;65.88
70127;BME280;57491;42.694;23.314;2023-05-22T02:11:56;94876.63;;;15.84;65.46
70127;BME280;57491;42.694;23.314;2023-05-22T02:14:24;94878.66;;;15.82;65.76
70127;BME280;57491;42.694;23.314;2023-05-22T02:16:51;94877.50;;;15.78;66.42
70127;BME280;57491;42.694;23.314;2023-05-22T02:19:18;94880.31;;;15.77;66.08
70127;BME280;57491;42.694;23.314;2023-05-22T02:21:46;94868.72;;;15.66;65.78
70127;BME280;57491;42.694;23.314;2023-05-22T02:24:14;94885.84;;;15.69;66.33
70127;BME280;57491;42.694;23.314;2023-05-22T02:26:41;94881.22;;;15.64;66.52
70127;BME280;57491;42.694;23.314;2023-05-22T02:29:08;94885.47;;;15.65;66.54
70127;BME280;57491;42.694;23.314;2023-05-22T02:31:37;94885.25;;;15.67;66.58
70127;BME280;57491;42.694;23.314;2023-05-22T02:34:04;94883.50;;;15.60;67.50
70127;BME280;57491;42.694;23.314;2023-05-22T02:36:31;94887.13;;;15.59;67.45
70127;BME280;57491;42.694;23.314;2023-05-22T02:39:00;94878.53;;;15.52;67.20
70127;BME280;57491;42.694;23.314;2023-05-22T02:41:27;94868.28;;;15.44;67.18
70127;BME280;57491;42.694;23.314;2023-05-22T02:43:54;94883.41;;;15.42;67.54
70127;BME280;57491;42.694;23.314;2023-05-22T02:46:21;94883.03;;;15.39;67.61
70127;BME280;57491;42.694;23.314;2023-05-22T02:48:48;94875.38;;;15.37;68.49
70127;BME280;57491;42.694;23.314;2023-05-22T02:51:15;94879.41;;;15.40;68.37
70127;BME280;57491;42.694;23.314;2023-05-22T02:53:42;94883.19;;;15.44;68.54
70127;BME280;57491;42.694;23.314;2023-05-22T02:56:10;94866.50;;;15.38;68.89
70127;BME280;57491;42.694;23.314;2023-05-22T02:58:37;94880.56;;;15.44;68.15
70127;BME280;57491;42.694;23.314;2023-05-22T03:01:04;94877.78;;;15.39;68.03
70127;BME280;57491;42.694;23.314;2023-05-22T03:03:34;94882.22;;;15.38;67.74
70127;BME280;57491;42.694;23.314;2023-05-22T03:06:01;94878.81;;;15.31;67.68
70127;BME280;57491;42.694;23.314;2023-05-22T03:08:28;94870.97;;;15.31;67.76
70127;BME280;57491;42.694;23.314;2023-05-22T03:10:57;94877.66;;;15.27;68.25
70127;BME280;57491;42.694;23.314;2023-05-22T03:13:25;94878.53;;;15.21;68.47
70127;BME280;57491;42.694;23.314;2023-05-22T03:15:52;94884.00;;;15.13;68.61
70127;BME280;57491;42.694;23.314;2023-05-22T03:18:19;94880.38;;;15.14;68.63
70127;BME280;57491;42.694;23.314;2023-05-22T03:20:47;94882.41;;;15.12;68.53
70127;BME280;57491;42.694;23.314;2023-05-22T03:23:14;94878.13;;;15.17;69.07
70127;BME280;57491;42.694;23.314;2023-05-22T03:25:41;94877.47;;;15.22;68.29
70127;BME280;57491;42.694;23.314;2023-05-22T03:28:08;94877.06;;;15.25;67.85
70127;BME280;57491;42.694;23.314;2023-05-22T03:30:36;94879.31;;;15.22;68.29
70127;BME280;57491;42.694;23.314;2023-05-22T03:33:03;94882.72;;;15.22;68.13
70127;BME280;57491;42.694;23.314;2023-05-22T03:35:30;94878.88;;;15.25;68.21
70127;BME280;57491;42.694;23.314;2023-05-22T03:37:57;94880.34;;;15.21;68.02
70127;BME280;57491;42.694;23.314;2023-05-22T03:40:24;94883.53;;;15.23;68.05
70127;BME280;57491;42.694;23.314;2023-05-22T03:42:51;94881.50;;;15.25;68.13
70127;BME280;57491;42.694;23.314;2023-05-22T03:45:18;94883.50;;;15.29;68.02
70127;BME280;57491;42.694;23.314;2023-05-22T03:47:47;94875.19;;;15.32;68.30
70127;BME280;57491;42.694;23.314;2023-05-22T03:50:14;94882.16;;;15.45;67.83
70127;BME280;57491;42.694;23.314;2023-05-22T03:52:41;94883.53;;;15.54;67.60
70127;BME280;57491;42.694;23.314;2023-05-22T03:55:08;94889.56;;;15.54;67.48
70127;BME280;57491;42.694;23.314;2023-05-22T03:57:35;94890.09;;;15.63;67.57
70127;BME280;57491;42.694;23.314;2023-05-22T04:00:03;94890.63;;;15.72;67.40
70127;BME280;57491;42.694;23.314;2023-05-22T04:02:34;94886.88;;;15.86;67.95
70127;BME280;57491;42.694;23.314;2023-05-22T04:05:07;94894.72;;;15.92;67.00
70127;BME280;57491;42.694;23.314;2023-05-22T04:07:34;94891.44;;;15.97;66.95
70127;BME280;57491;42.694;23.314;2023-05-22T04:10:02;94897.25;;;15.99;65.94
70127;BME280;57491;42.694;23.314;2023-05-22T04:12:29;94894.63;;;15.99;65.77
70127;BME280;57491;42.694;23.314;2023-05-22T04:14:56;94888.22;;;15.95;65.62
70127;BME280;57491;42.694;23.314;2023-05-22T04:17:25;94891.34;;;16.03;66.86
70127;BME280;57491;42.694;23.314;2023-05-22T04:19:56;94894.88;;;16.16;66.21
70127;BME280;57491;42.694;23.314;2023-05-22T04:22:26;94882.69;;;16.21;65.57
70127;BME280;57491;42.694;23.314;2023-05-22T04:24:55;94890.22;;;16.36;64.75
70127;BME280;57491;42.694;23.314;2023-05-22T04:27:22;94895.63;;;16.41;64.42
70127;BME280;57491;42.694;23.314;2023-05-22T04:29:49;94892.63;;;16.37;64.01
70127;BME280;57491;42.694;23.314;2023-05-22T04:32:17;94894.25;;;16.38;63.84
70127;BME280;57491;42.694;23.314;2023-05-22T04:34:48;94884.75;;;16.37;64.02
70127;BME280;57491;42.694;23.314;2023-05-22T04:37:15;94892.03;;;16.53;64.15
70127;BME280;57491;42.694;23.314;2023-05-22T04:39:44;94896.00;;;16.63;63.93
70127;BME280;57491;42.694;23.314;2023-05-22T04:42:12;94898.25;;;16.77;63.82
70127;BME280;57491;42.694;23.314;2023-05-22T04:44:39;94895.09;;;16.87;62.94
70127;BME280;57491;42.694;23.314;2023-05-22T04:47:06;94900.75;;;17.02;61.75
70127;BME280;57491;42.694;23.314;2023-05-22T04:49:36;94893.28;;;17.17;61.75
70127;BME280;57491;42.694;23.314;2023-05-22T04:52:03;94899.97;;;17.43;61.20
70127;BME280;57491;42.694;23.314;2023-05-22T04:54:31;94902.31;;;17.63;61.07
70127;BME280;57491;42.694;23.314;2023-05-22T04:57:00;94890.13;;;17.68;59.52
70127;BME280;57491;42.694;23.314;2023-05-22T04:59:30;94898.59;;;17.82;58.95
70127;BME280;57491;42.694;23.314;2023-05-22T05:01:58;94904.66;;;17.94;59.23
70127;BME280;57491;42.694;23.314;2023-05-22T05:04:25;94906.25;;;18.07;58.83
70127;BME280;57491;42.694;23.314;2023-05-22T05:06:52;94910.84;;;18.23;57.68
70127;BME280;57491;42.694;23.314;2023-05-22T05:09:19;94895.28;;;18.21;57.56
70127;BME280;57491;42.694;23.314;2023-05-22T05:11:46;94908.41;;;18.33;58.08
70127;BME280;57491;42.694;23.314;2023-05-22T05:14:15;94908.41;;;18.45;57.67
70127;BME280;57491;42.694;23.314;2023-05-22T05:16:43;94912.72;;;18.51;56.73
70127;BME280;57491;42.694;23.314;2023-05-22T05:19:11;94915.34;;;18.51;57.27
70127;BME280;57491;42.694;23.314;2023-05-22T05:21:38;94912.28;;;18.65;56.66
70127;BME280;57491;42.694;23.314;2023-05-22T05:24:06;94906.41;;;18.75;56.50
70127;BME280;57491;42.694;23.314;2023-05-22T05:26:33;94909.06;;;18.75;56.19
70127;BME280;57491;42.694;23.314;2023-05-22T05:29:00;94905.50;;;18.81;55.75
70127;BME280;57491;42.694;23.314;2023-05-22T05:31:28;94909.00;;;18.98;55.83
70127;BME280;57491;42.694;23.314;2023-05-22T05:33:55;94910.88;;;19.14;55.14
70127;BME280;57491;42.694;23.314;2023-05-22T05:36:23;94919.53;;;19.27;54.77
70127;BME280;57491;42.694;23.314;2023-05-22T05:38:50;94904.22;;;19.40;55.21
70127;BME280;57491;42.694;23.314;2023-05-22T05:41:17;94906.88;;;19.40;53.93
70127;BME280;57491;42.694;23.314;2023-05-22T05:43:44;94912.41;;;19.55;53.81
70127;BME280;57491;42.694;23.314;2023-05-22T05:46:11;94905.41;;;19.61;52.77
70127;BME280;57491;42.694;23.314;2023-05-22T05:48:40;94915.94;;;19.61;52.16
70127;BME280;57491;42.694;23.314;2023-05-22T05:51:07;94917.56;;;19.62;52.09
70127;BME280;57491;42.694;23.314;2023-05-22T05:53:34;94909.09;;;19.77;52.25
70127;BME280;57491;42.694;23.314;2023-05-22T05:56:05;94923.41;;;19.97;51.63
70127;BME280;57491;42.694;23.314;2023-05-22T05:58:33;94923.47;;;20.02;50.80
70127;BME280;57491;42.694;23.314;2023-05-22T06:01:00;94915.72;;;19.96;50.71
70127;BME280;57491;42.694;23.314;2023-05-22T06:03:28;94923.00;;;20.05;50.47
70127;BME280;57491;42.694;23.314;2023-05-22T06:05:57;94916.97;;;20.27;50.01
70127;BME280;57491;42.694;23.314;2023-05-22T06:08:24;94911.63;;;20.22;49.25
70127;BME280;57491;42.694;23.314;2023-05-22T06:10:51;94902.50;;;20.29;48.58
70127;BME280;57491;42.694;23.314;2023-05-22T06:13:18;94906.81;;;20.35;48.41
70127;BME280;57491;42.694;23.314;2023-05-22T06:15:45;94913.03;;;20.46;47.79
70127;BME280;57491;42.694;23.314;2023-05-22T06:18:12;94918.97;;;20.53;46.87
70127;BME280;57491;42.694;23.314;2023-05-22T06:20:39;94918.59;;;20.66;47.26
70127;BME280;57491;42.694;23.314;2023-05-22T06:23:08;94914.34;;;20.65;45.88
70127;BME280;57491;42.694;23.314;2023-05-22T06:25:35;94918.84;;;20.86;46.16
70127;BME280;57491;42.694;23.314;2023-05-22T06:28:04;94913.19;;;21.00;45.63
70127;BME280;57491;42.694;23.314;2023-05-22T06:30:31;94914.28;;;21.04;46.18
70127;BME280;57491;42.694;23.314;2023-05-22T06:32:58;94913.69;;;20.97;46.21
70127;BME280;57491;42.694;23.314;2023-05-22T06:35:26;94917.31;;;20.90;44.90
70127;BME280;57491;42.694;23.314;2023-05-22T06:37:53;94908.28;;;20.86;44.47
70127;BME280;57491;42.694;23.314;2023-05-22T06:40:21;94913.06;;;20.89;43.65
70127;BME280;57491;42.694;23.314;2023-05-22T06:42:48;94911.41;;;21.05;43.54
70127;BME280;57491;42.694;23.314;2023-05-22T06:45:15;94916.63;;;21.22;44.72
70127;BME280;57491;42.694;23.314;2023-05-22T06:47:44;94902.94;;;21.30;43.66
70127;BME280;57491;42.694;23.314;2023-05-22T06:50:11;94908.34;;;21.40;45.28
70127;BME280;57491;42.694;23.314;2023-05-22T06:52:38;94916.44;;;21.55;45.15
70127;BME280;57491;42.694;23.314;2023-05-22T06:55:06;94916.53;;;21.65;44.52
70127;BME280;57491;42.694;23.314;2023-05-22T06:57:34;94910.97;;;21.94;44.95
70127;BME280;57491;42.694;23.314;2023-05-22T07:00:02;94910.09;;;22.15;44.13
70127;BME280;57491;42.694;23.314;2023-05-22T07:02:32;94904.94;;;22.40;42.58
70127;BME280;57491;42.694;23.314;2023-05-22T07:04:59;94916.19;;;22.62;42.45
70127;BME280;57491;42.694;23.314;2023-05-22T07:07:26;94920.47;;;22.68;42.15
70127;BME280;57491;42.694;23.314;2023-05-22T07:09:53;94920.00;;;22.77;41.78
70127;BME280;57491;42.694;23.314;2023-05-22T07:12:20;94917.63;;;22.80;41.91
70127;BME280;57491;42.694;23.314;2023-05-22T07:14:52;94912.84;;;22.77;41.69
70127;BME280;57491;42.694;23.314;2023-05-22T07:17:19;94918.47;;;22.86;40.54
70127;BME280;57491;42.694;23.314;2023-05-22T07:19:47;94911.56;;;22.85;40.16
70127;BME280;57491;42.694;23.314;2023-05-22T07:22:14;94913.66;;;22.78;39.03
70127;BME280;57491;42.694;23.314;2023-05-22T07:24:41;94908.63;;;22.81;38.77
70127;BME280;57491;42.694;23.314;2023-05-22T07:27:08;94908.69;;;22.91;38.92
70127;BME280;57491;42.694;23.314;2023-05-22T07:29:35;94902.59;;;22.96;39.02
70127;BME280;57491;42.694;23.314;2023-05-22T07:32:04;94911.97;;;23.19;39.00
70127;BME280;57491;42.694;23.314;2023-05-22T07:34:32;94912.75;;;23.24;37.40
70127;BME280;57491;42.694;23.314;2023-05-22T07:36:59;94908.53;;;23.38;37.24
70127;BME280;57491;42.694;23.314;2023-05-22T07:39:26;94903.75;;;23.30;37.92
70127;BME280;57491;42.694;23.314;2023-05-22T07:41:53;94908.50;;;23.18;37.72
70127;BME280;57491;42.694;23.314;2023-05-22T07:44:20;94907.75;;;23.28;36.91
70127;BME280;57491;42.694;23.314;2023-05-22T07:46:47;94902.44;;;23.43;36.43
70127;BME280;57491;42.694;23.314;2023-05-22T07:49:17;94904.38;;;23.63;37.36
70127;BME280;57491;42.694;23.314;2023-05-22T07:51:46;94904.38;;;23.98;36.35
70127;BME280;57491;42.694;23.314;2023-05-22T07:54:13;94896.13;;;24.15;35.34
70127;BME280;57491;42.694;23.314;2023-05-22T07:56:40;94897.22;;;23.88;35.90
70127;BME280;57491;42.694;23.314;2023-05-22T07:59:07;94898.00;;;23.94;35.66
70127;BME280;57491;42.694;23.314;2023-05-22T08:01:35;94895.09;;;24.21;35.37
70127;BME280;57491;42.694;23.314;2023-05-22T08:04:03;94893.75;;;24.33;35.45
70127;BME280;57491;42.694;23.314;2023-05-22T08:06:32;94900.59;;;24.55;34.51
70127;BME280;57491;42.694;23.314;2023-05-22T08:09:00;94906.44;;;24.67;34.17
70127;BME280;57491;42.694;23.314;2023-05-22T08:11:29;94891.88;;;24.39;33.73
70127;BME280;57491;42.694;23.314;2023-05-22T08:13:56;94885.47;;;24.50;34.47
70127;BME280;57491;42.694;23.314;2023-05-22T08:16:23;94890.88;;;25.04;33.80
70127;BME280;57491;42.694;23.314;2023-05-22T08:18:50;94890.41;;;25.41;32.46
70127;BME280;57491;42.694;23.314;2023-05-22T08:21:17;94887.03;;;25.74;31.21
70127;BME280;57491;42.694;23.314;2023-05-22T08:23:46;94892.34;;;26.08;31.06
70127;BME280;57491;42.694;23.314;2023-05-22T08:26:13;94888.06;;;25.79;30.92
70127;BME280;57491;42.694;23.314;2023-05-22T08:28:42;94891.50;;;25.84;31.79
70127;BME280;57491;42.694;23.314;2023-05-22T08:31:09;94892.44;;;25.98;31.26
70127;BME280;57491;42.694;23.314;2023-05-22T08:33:36;94896.97;;;25.64;32.39
70127;BME280;57491;42.694;23.314;2023-05-22T08:36:04;94895.19;;;25.88;32.89
70127;BME280;57491;42.694;23.314;2023-05-22T08:38:31;94884.69;;;25.68;30.76
70127;BME280;57491;42.694;23.314;2023-05-22T08:40:59;94893.38;;;26.12;29.85
70127;BME280;57491;42.694;23.314;2023-05-22T08:43:27;94887.22;;;26.46;28.15
70127;BME280;57491;42.694;23.314;2023-05-22T08:45:59;94877.38;;;26.70;27.59
70127;BME280;57491;42.694;23.314;2023-05-22T08:48:28;94880.94;;;27.08;27.85
70127;BME280;57491;42.694;23.314;2023-05-22T08:50:58;94886.97;;;27.37;26.58
70127;BME280;57491;42.694;23.314;2023-05-22T08:53:28;94876.03;;;26.96;27.18
70127;BME280;57491;42.694;23.314;2023-05-22T08:55:56;94883.31;;;26.38;28.67
70127;BME280;57491;42.694;23.314;2023-05-22T08:58:26;94889.81;;;26.56;27.66
70127;BME280;57491;42.694;23.314;2023-05-22T09:00:54;94871.53;;;26.15;27.77
70127;BME280;57491;42.694;23.314;2023-05-22T09:03:21;94880.75;;;26.28;27.89
70127;BME280;57491;42.694;23.314;2023-05-22T09:05:49;94878.66;;;26.49;27.57
70127;BME280;57491;42.694;23.314;2023-05-22T09:08:16;94878.69;;;26.73;26.51
70127;BME280;57491;42.694;23.314;2023-05-22T09:10:44;94871.06;;;26.37;27.06
70127;BME280;57491;42.694;23.314;2023-05-22T09:13:22;94867.03;;;26.63;26.97
70127;BME280;57491;42.694;23.314;2023-05-22T09:15:51;94865.00;;;26.79;26.25
70127;BME280;57491;42.694;23.314;2023-05-22T09:18:18;94875.78;;;26.93;27.10
70127;BME280;57491;42.694;23.314;2023-05-22T09:20:46;94873.28;;;26.78;26.25
70127;BME280;57491;42.694;23.314;2023-05-22T09:23:14;94870.50;;;26.40;27.37
70127;BME280;57491;42.694;23.314;2023-05-22T09:25:43;94871.06;;;26.37;27.05
70127;BME280;57491;42.694;23.314;2023-05-22T09:28:11;94874.63;;;25.94;28.77
70127;BME280;57491;42.694;23.314;2023-05-22T09:30:38;94867.59;;;26.37;29.66
70127;BME280;57491;42.694;23.314;2023-05-22T09:33:08;94880.81;;;26.71;29.53
70127;BME280;57491;42.694;23.314;2023-05-22T09:35:39;94884.16;;;26.81;30.01
70127;BME280;57491;42.694;23.314;2023-05-22T09:38:07;94875.44;;;26.76;29.91
70127;BME280;57491;42.694;23.314;2023-05-22T09:40:36;94877.81;;;26.77;30.46
70127;BME280;57491;42.694;23.314;2023-05-22T09:43:06;94873.88;;;26.75;30.48
70127;BME280;57491;42.694;23.314;2023-05-22T09:45:33;94880.06;;;26.70;29.62
70127;BME280;57491;42.694;23.314;2023-05-22T09:48:01;94873.50;;;26.34;30.05
70127;BME280;57491;42.694;23.314;2023-05-22T09:50:30;94874.34;;;25.95;31.05
70127;BME280;57491;42.694;23.314;2023-05-22T09:52:59;94873.75;;;25.69;31.34
70127;BME280;57491;42.694;23.314;2023-05-22T09:55:27;94870.94;;;25.51;32.25
70127;BME280;57491;42.694;23.314;2023-05-22T09:57:55;94877.31;;;25.50;32.88
70127;BME280;57491;42.694;23.314;2023-05-22T10:00:24;94877.91;;;25.42;32.62
70127;BME280;57491;42.694;23.314;2023-05-22T10:02:55;94881.13;;;25.39;33.24
70127;BME280;57491;42.694;23.314;2023-05-22T10:05:30;94867.47;;;25.06;33.63
70127;BME280;57491;42.694;23.314;2023-05-22T10:08:04;94876.59;;;24.90;33.71
70127;BME280;57491;42.694;23.314;2023-05-22T10:10:35;94873.44;;;24.73;33.84
70127;BME280;57491;42.694;23.314;2023-05-22T10:13:03;94875.06;;;24.59;34.27
70127;BME280;57491;42.694;23.314;2023-05-22T10:15:30;94885.41;;;24.70;34.19
70127;BME280;57491;42.694;23.314;2023-05-22T10:17:58;94885.13;;;24.77;33.43
70127;BME280;57491;42.694;23.314;2023-05-22T10:20:25;94878.50;;;24.74;33.57
70127;BME280;57491;42.694;23.314;2023-05-22T10:22:54;94880.13;;;24.65;33.19
70127;BME280;57491;42.694;23.314;2023-05-22T10:25:22;94876.19;;;24.48;33.90
70127;BME280;57491;42.694;23.314;2023-05-22T10:27:51;94886.03;;;24.42;34.42
70127;BME280;57491;42.694;23.314;2023-05-22T10:30:23;94881.25;;;24.34;35.76
70127;BME280;57491;42.694;23.314;2023-05-22T10:32:56;94875.44;;;24.12;36.59
70127;BME280;57491;42.694;23.314;2023-05-22T10:35:33;94894.81;;;23.87;38.75
70127;BME280;57491;42.694;23.314;2023-05-22T10:38:19;94887.88;;;23.40;37.73
70127;BME280;57491;42.694;23.314;2023-05-22T10:40:51;94903.97;;;23.24;39.52
70127;BME280;57491;42.694;23.314;2023-05-22T10:43:20;94917.97;;;22.99;41.40
70127;BME280;57491;42.694;23.314;2023-05-22T10:45:47;94920.41;;;22.58;45.04
70127;BME280;57491;42.694;23.314;2023-05-22T10:48:20;94918.53;;;21.85;46.31
70127;BME280;57491;42.694;23.314;2023-05-22T10:50:49;94911.06;;;21.45;46.38
70127;BME280;57491;42.694;23.314;2023-05-22T10:53:21;94904.66;;;21.41;48.56
70127;BME280;57491;42.694;23.314;2023-05-22T10:55:48;94902.03;;;21.41;43.98
70127;BME280;57491;42.694;23.314;2023-05-22T10:58:16;94901.50;;;21.44;48.09
70127;BME280;57491;42.694;23.314;2023-05-22T11:00:43;94891.09;;;21.32;51.21
70127;BME280;57491;42.694;23.314;2023-05-22T11:03:11;94891.78;;;21.23;49.65
70127;BME280;57491;42.694;23.314;2023-05-22T11:05:39;94889.38;;;21.48;49.46
70127;BME280;57491;42.694;23.314;2023-05-22T11:10:54;94882.16;;;22.39;45.93
70127;BME280;57491;42.694;23.314;2023-05-22T11:13:25;94884.19;;;22.74;43.89
70127;BME280;57491;42.694;23.314;2023-05-22T11:15:54;94865.50;;;23.11;43.00
70127;BME280;57491;42.694;23.314;2023-05-22T11:18:22;94866.41;;;23.57;42.33
70127;BME280;57491;42.694;23.314;2023-05-22T11:20:52;94872.81;;;23.86;39.93
70127;BME280;57491;42.694;23.314;2023-05-22T11:23:19;94871.72;;;24.02;39.38
70127;BME280;57491;42.694;23.314;2023-05-22T11:25:48;94869.56;;;24.35;39.57
70127;BME280;57491;42.694;23.314;2023-05-22T11:28:16;94872.25;;;24.25;38.52
70127;BME280;57491;42.694;23.314;2023-05-22T11:30:44;94890.03;;;23.94;38.68
70127;BME280;57491;42.694;23.314;2023-05-22T11:33:12;94915.50;;;22.35;41.95
70127;BME280;57491;42.694;23.314;2023-05-22T11:35:39;94954.38;;;20.74;50.86
70127;BME280;57491;42.694;23.314;2023-05-22T11:38:07;94948.59;;;19.32;54.18
70127;BME280;57491;42.694;23.314;2023-05-22T11:40:35;94927.44;;;18.98;57.81
70127;BME280;57491;42.694;23.314;2023-05-22T11:43:02;94935.63;;;18.39;57.55
70127;BME280;57491;42.694;23.314;2023-05-22T11:45:30;94940.63;;;17.70;58.71
70127;BME280;57491;42.694;23.314;2023-05-22T11:47:57;94937.00;;;17.42;56.32
70127;BME280;57491;42.694;23.314;2023-05-22T11:50:24;94945.22;;;17.33;60.85
70127;BME280;57491;42.694;23.314;2023-05-22T11:52:52;94942.69;;;17.38;59.30
70127;BME280;57491;42.694;23.314;2023-05-22T11:55:21;94944.94;;;17.23;56.53
70127;BME280;57491;42.694;23.314;2023-05-22T11:57:48;94938.56;;;17.31;57.21
70127;BME280;57491;42.694;23.314;2023-05-22T12:00:16;94938.69;;;17.36;57.47
70127;BME280;57491;42.694;23.314;2023-05-22T12:02:45;94942.78;;;17.62;61.56
70127;BME280;57491;42.694;23.314;2023-05-22T12:05:13;94930.66;;;17.61;57.62
70127;BME280;57491;42.694;23.314;2023-05-22T12:07:42;94944.44;;;17.86;57.24
70127;BME280;57491;42.694;23.314;2023-05-22T12:10:10;94931.84;;;17.76;58.97
70127;BME280;57491;42.694;23.314;2023-05-22T12:12:39;94935.28;;;17.89;57.75
70127;BME280;57491;42.694;23.314;2023-05-22T12:15:07;94930.81;;;17.89;59.60
70127;BME280;57491;42.694;23.314;2023-05-22T12:17:34;94930.25;;;18.10;57.75
70127;BME280;57491;42.694;23.314;2023-05-22T12:20:04;94938.63;;;18.19;57.87
70127;BME280;57491;42.694;23.314;2023-05-22T12:22:32;94932.00;;;18.05;58.21
70127;BME280;57491;42.694;23.314;2023-05-22T12:24:59;94927.75;;;18.04;60.89
70127;BME280;57491;42.694;23.314;2023-05-22T12:27:28;94922.06;;;18.18;57.89
70127;BME280;57491;42.694;23.314;2023-05-22T12:29:56;94927.31;;;18.18;55.23
70127;BME280;57491;42.694;23.314;2023-05-22T12:32:23;94914.03;;;18.13;56.70
70127;BME280;57491;42.694;23.314;2023-05-22T12:34:51;94916.31;;;18.21;54.82
70127;BME280;57491;42.694;23.314;2023-05-22T12:37:21;94911.69;;;18.52;60.42
70127;BME280;57491;42.694;23.314;2023-05-22T12:39:54;94923.56;;;18.89;57.37
70127;BME280;57491;42.694;23.314;2023-05-22T12:42:21;94910.88;;;19.14;56.53
70127;BME280;57491;42.694;23.314;2023-05-22T12:44:49;94910.28;;;19.41;54.50
70127;BME280;57491;42.694;23.314;2023-05-22T12:47:17;94919.28;;;19.56;55.06
70127;BME280;57491;42.694;23.314;2023-05-22T12:49:44;94914.50;;;19.70;54.12
70127;BME280;57491;42.694;23.314;2023-05-22T12:52:11;94912.09;;;19.69;54.83
70127;BME280;57491;42.694;23.314;2023-05-22T12:54:40;94905.41;;;19.61;52.15
70127;BME280;57491;42.694;23.314;2023-05-22T12:57:07;94910.03;;;19.87;54.97
70127;BME280;57491;42.694;23.314;2023-05-22T12:59:34;94921.41;;;19.88;53.74